createdAt,value
2023-04-28T00:00:11.977Z,8.40
2023-04-28T00:03:00.227Z,8.90
2023-04-28T00:05:29.158Z,8.50
2023-04-28T00:07:57.325Z,8.70
2023-04-28T00:10:25.515Z,8.30
2023-04-28T00:12:53.650Z,8.80
2023-04-28T00:15:21.923Z,8.10
2023-04-28T00:17:50.488Z,8.20
2023-04-28T00:20:18.846Z,8.00
2023-04-28T00:22:47.121Z,6.60
2023-04-28T00:25:15.440Z,7.80
2023-04-28T00:27:43.519Z,8.20
2023-04-28T00:30:11.986Z,8.10
2023-04-28T00:32:40.273Z,7.40
2023-04-28T00:35:08.766Z,7.60
2023-04-28T00:37:37.946Z,7.30
2023-04-28T00:40:07.027Z,6.90
2023-04-28T00:42:35.272Z,7.90
2023-04-28T00:45:06.297Z,7.40
2023-04-28T00:47:35.098Z,7.30
2023-04-28T00:50:04.273Z,7.90
2023-04-28T00:52:32.506Z,8.00
2023-04-28T00:55:00.930Z,7.60
2023-04-28T00:57:31.141Z,7.60
2023-04-28T00:59:59.423Z,8.30
2023-04-28T01:02:29.468Z,7.20
2023-04-28T01:04:59.309Z,7.00
2023-04-28T01:07:27.512Z,7.30
2023-04-28T01:09:56.512Z,7.50
2023-04-28T01:12:28.063Z,6.90
2023-04-28T01:14:58.600Z,7.10
2023-04-28T01:17:27.623Z,7.00
2023-04-28T01:19:56.158Z,7.30
2023-04-28T01:22:24.296Z,6.50
2023-04-28T01:24:52.527Z,7.70
2023-04-28T01:27:20.897Z,6.90
2023-04-28T01:29:49.434Z,7.20
2023-04-28T01:32:17.539Z,6.80
2023-04-28T01:34:45.768Z,7.10
2023-04-28T01:37:13.928Z,6.70
2023-04-28T01:39:42.327Z,6.50
2023-04-28T01:42:10.463Z,7.30
2023-04-28T01:44:38.792Z,5.50
2023-04-28T01:47:07.051Z,5.90
2023-04-28T01:49:36.471Z,5.90
2023-04-28T01:52:04.886Z,6.20
2023-04-28T01:54:33.521Z,6.00
2023-04-28T01:57:03.057Z,6.40
2023-04-28T01:59:31.832Z,6.30
2023-04-28T02:02:00.020Z,6.80
2023-04-28T02:04:28.315Z,6.40
2023-04-28T02:06:56.513Z,7.00
2023-04-28T02:09:24.702Z,6.70
2023-04-28T02:11:52.856Z,6.50
2023-04-28T02:14:22.201Z,6.10
2023-04-28T02:16:50.283Z,6.80
2023-04-28T02:19:18.440Z,6.20
2023-04-28T02:21:46.612Z,6.10
2023-04-28T02:24:15.290Z,6.10
2023-04-28T02:26:43.664Z,5.00
2023-04-28T02:29:11.802Z,6.10
2023-04-28T02:31:40.190Z,5.90
2023-04-28T02:34:08.650Z,5.60
2023-04-28T02:36:37.025Z,6.10
2023-04-28T02:39:05.304Z,5.40
2023-04-28T02:41:34.940Z,6.60
2023-04-28T02:44:03.401Z,6.00
2023-04-28T02:46:32.037Z,6.20
2023-04-28T02:49:00.538Z,6.40
2023-04-28T02:51:28.756Z,6.10
2023-04-28T02:53:57.119Z,5.80
2023-04-28T02:56:25.729Z,5.70
2023-04-28T02:58:53.936Z,5.30
2023-04-28T03:01:22.177Z,5.50
2023-04-28T03:03:51.109Z,5.80
2023-04-28T03:06:19.356Z,5.50
2023-04-28T03:08:47.580Z,5.40
2023-04-28T03:11:15.918Z,5.40
2023-04-28T03:13:44.445Z,6.10
2023-04-28T03:16:12.566Z,6.10
2023-04-28T03:18:40.930Z,5.90
2023-04-28T03:21:09.307Z,6.30
2023-04-28T03:23:37.415Z,5.10
2023-04-28T03:26:05.911Z,5.80
2023-04-28T03:28:34.101Z,5.80
2023-04-28T03:31:03.087Z,5.90
2023-04-28T03:33:31.639Z,5.20
2023-04-28T03:36:00.359Z,6.10
2023-04-28T03:38:28.704Z,5.60
2023-04-28T03:40:56.797Z,6.40
2023-04-28T03:43:37.687Z,5.30
2023-04-28T03:46:13.847Z,6.00
2023-04-28T03:48:42.386Z,5.80
2023-04-28T03:51:10.841Z,5.60
2023-04-28T03:53:38.922Z,6.00
2023-04-28T03:56:07.766Z,5.50
2023-04-28T03:58:36.861Z,5.00
2023-04-28T04:01:05.801Z,5.50
2023-04-28T04:03:34.268Z,5.80
2023-04-28T04:06:02.702Z,5.80
2023-04-28T04:08:31.253Z,6.00
2023-04-28T04:11:01.546Z,5.80
2023-04-28T04:13:29.698Z,4.90
2023-04-28T04:15:58.080Z,5.80
2023-04-28T04:18:27.421Z,6.70
2023-04-28T04:21:16.115Z,6.60
2023-04-28T04:23:44.388Z,6.40
2023-04-28T04:26:13.691Z,6.00
2023-04-28T04:28:42.276Z,5.80
2023-04-28T04:31:10.929Z,6.20
2023-04-28T04:33:39.169Z,5.70
2023-04-28T04:36:08.038Z,5.50
2023-04-28T04:38:36.317Z,9.70
2023-04-28T04:41:17.270Z,6.00
2023-04-28T04:43:45.735Z,5.30
2023-04-28T04:46:14.417Z,5.90
2023-04-28T04:48:43.310Z,5.60
2023-04-28T04:51:11.906Z,5.60
2023-04-28T04:53:40.232Z,5.60
2023-04-28T04:56:11.107Z,5.80
2023-04-28T04:58:39.325Z,5.90
2023-04-28T05:01:33.645Z,5.80
2023-04-28T05:04:02.207Z,5.50
2023-04-28T05:06:31.405Z,5.90
2023-04-28T05:08:59.682Z,5.50
2023-04-28T05:11:27.998Z,5.20
2023-04-28T05:13:56.201Z,5.30
2023-04-28T05:16:25.023Z,5.50
2023-04-28T05:19:03.958Z,5.40
2023-04-28T05:21:32.841Z,5.20
2023-04-28T05:24:01.637Z,5.60
2023-04-28T05:26:30.737Z,7.10
2023-04-28T05:29:04.252Z,5.60
2023-04-28T05:31:32.568Z,5.90
2023-04-28T05:34:01.039Z,5.50
2023-04-28T05:36:29.300Z,5.50
2023-04-28T05:38:58.128Z,5.50
2023-04-28T05:41:26.418Z,5.40
2023-04-28T05:43:54.488Z,5.60
2023-04-28T05:48:57.186Z,5.60
2023-04-28T05:51:25.523Z,5.60
2023-04-28T05:53:53.966Z,5.60
2023-04-28T05:56:22.265Z,6.00
2023-04-28T05:58:50.933Z,5.80
2023-04-28T06:01:19.220Z,5.50
2023-04-28T06:03:48.145Z,5.00
2023-04-28T06:06:16.743Z,6.00
2023-04-28T06:08:46.840Z,5.70
2023-04-28T06:11:15.052Z,6.00
2023-04-28T06:13:43.195Z,4.60
2023-04-28T06:16:11.580Z,5.20
2023-04-28T06:18:39.920Z,5.30
2023-04-28T06:21:08.163Z,6.50
2023-04-28T06:23:38.783Z,6.20
2023-04-28T06:26:06.986Z,6.20
2023-04-28T06:28:35.187Z,5.50
2023-04-28T06:31:03.421Z,6.10
2023-04-28T06:33:31.753Z,6.00
2023-04-28T06:36:01.893Z,5.70
2023-04-28T06:38:30.072Z,5.30
2023-04-28T06:40:58.171Z,5.40
2023-04-28T06:43:27.054Z,5.50
2023-04-28T06:46:06.674Z,4.10
2023-04-28T06:48:35.959Z,5.20
2023-04-28T06:51:05.277Z,5.00
2023-04-28T06:53:41.259Z,5.40
2023-04-28T06:56:11.384Z,4.90
2023-04-28T06:58:40.215Z,4.90
2023-04-28T07:01:08.395Z,5.00
2023-04-28T07:03:36.539Z,4.40
2023-04-28T07:06:05.245Z,5.30
2023-04-28T07:08:33.465Z,4.50
2023-04-28T07:11:04.949Z,4.70
2023-04-28T07:13:33.735Z,6.50
2023-04-28T07:16:02.351Z,8.20
2023-04-28T07:18:30.589Z,5.70
2023-04-28T07:20:58.779Z,5.60
2023-04-28T07:23:26.880Z,4.90
2023-04-28T07:25:55.254Z,4.30
2023-04-28T07:28:23.452Z,3.90
2023-04-28T07:30:51.638Z,3.80
2023-04-28T07:33:20.009Z,3.10
2023-04-28T07:35:49.641Z,3.50
2023-04-28T07:38:18.801Z,2.60
2023-04-28T07:40:48.359Z,2.80
2023-04-28T07:43:16.451Z,3.00
2023-04-28T07:45:46.169Z,2.30
2023-04-28T07:48:15.582Z,2.80
2023-04-28T07:50:43.784Z,2.10
2023-04-28T07:53:12.097Z,2.80
2023-04-28T07:55:42.171Z,3.00
2023-04-28T07:58:10.564Z,2.70
2023-04-28T08:00:40.854Z,2.40
2023-04-28T08:03:09.538Z,2.30
2023-04-28T08:05:40.023Z,2.50
2023-04-28T08:08:08.518Z,2.60
2023-04-28T08:10:36.628Z,2.10
2023-04-28T08:13:04.768Z,2.30
2023-04-28T08:15:32.970Z,2.10
2023-04-28T08:18:01.154Z,2.50
2023-04-28T08:20:30.370Z,2.10
2023-04-28T08:22:59.079Z,1.90
2023-04-28T08:25:27.494Z,2.20
2023-04-28T08:27:57.388Z,2.00
2023-04-28T08:30:25.818Z,1.80
2023-04-28T08:32:54.326Z,1.90
2023-04-28T08:35:23.133Z,1.90
2023-04-28T08:37:52.913Z,2.20
2023-04-28T08:40:21.189Z,2.10
2023-04-28T08:42:49.690Z,2.10
2023-04-28T08:45:18.059Z,2.60
2023-04-28T08:47:50.120Z,2.00
2023-04-28T08:50:25.097Z,2.10
2023-04-28T08:52:53.696Z,1.90
2023-04-28T08:55:22.070Z,2.00
2023-04-28T08:57:51.965Z,2.20
2023-04-28T09:00:20.327Z,2.10
2023-04-28T09:02:48.656Z,1.80
2023-04-28T09:05:17.330Z,2.30
2023-04-28T09:07:47.317Z,2.10
2023-04-28T09:10:21.551Z,1.80
2023-04-28T09:12:53.404Z,1.80
2023-04-28T09:15:41.168Z,2.10
2023-04-28T09:18:14.772Z,1.80
2023-04-28T09:23:18.074Z,1.70
2023-04-28T09:26:08.395Z,1.90
2023-04-28T09:28:36.795Z,2.00
2023-04-28T09:31:05.136Z,1.60
2023-04-28T09:33:33.312Z,2.30
2023-04-28T09:36:01.549Z,1.70
2023-04-28T09:38:29.703Z,1.60
2023-04-28T09:41:02.831Z,2.00
2023-04-28T09:43:33.674Z,2.20
2023-04-28T09:46:03.714Z,2.10
2023-04-28T09:48:38.434Z,2.10
2023-04-28T09:51:09.102Z,2.20
2023-04-28T09:53:39.116Z,2.00
2023-04-28T09:56:08.350Z,1.80
2023-04-28T09:58:41.025Z,1.80
2023-04-28T10:01:11.803Z,1.70
2023-04-28T10:03:43.269Z,1.80
2023-04-28T10:06:11.518Z,1.90
2023-04-28T10:08:40.665Z,1.60
2023-04-28T10:11:10.081Z,1.60
2023-04-28T10:13:39.111Z,1.70
2023-04-28T10:16:08.267Z,1.80
2023-04-28T10:18:37.694Z,2.00
2023-04-28T10:21:07.564Z,1.90
2023-04-28T10:23:38.507Z,1.80
2023-04-28T10:26:12.904Z,1.70
2023-04-28T10:28:52.193Z,2.20
2023-04-28T10:31:22.863Z,1.80
2023-04-28T10:33:51.064Z,2.20
2023-04-28T10:36:47.518Z,2.20
2023-04-28T10:39:17.011Z,2.20
2023-04-28T10:41:47.869Z,2.20
2023-04-28T10:44:28.263Z,2.20
2023-04-28T10:47:09.925Z,2.00
2023-04-28T10:49:57.696Z,2.50
2023-04-28T10:52:49.717Z,2.20
2023-04-28T10:55:41.910Z,2.40
2023-04-28T10:58:15.788Z,2.40
2023-04-28T11:00:48.053Z,1.80
2023-04-28T11:03:51.781Z,2.00
2023-04-28T11:09:03.420Z,1.80
2023-04-28T11:11:35.215Z,2.00
2023-04-28T11:14:18.501Z,1.70
2023-04-28T11:16:51.202Z,2.20
2023-04-28T11:19:21.595Z,1.90
2023-04-28T11:21:50.719Z,2.00
2023-04-28T11:24:20.216Z,1.70
2023-04-28T11:26:48.930Z,1.90
2023-04-28T11:29:17.218Z,2.50
2023-04-28T11:31:52.249Z,2.10
2023-04-28T11:34:24.447Z,2.30
2023-04-28T11:36:54.648Z,2.40
2023-04-28T11:39:31.324Z,2.10
2023-04-28T11:42:02.598Z,1.70
2023-04-28T11:44:31.961Z,2.30
2023-04-28T11:47:04.313Z,2.10
2023-04-28T11:49:42.791Z,1.90
2023-04-28T11:52:12.199Z,3.20
2023-04-28T11:54:43.600Z,3.50
2023-04-28T11:57:19.658Z,2.50
2023-04-28T11:59:49.121Z,2.40
2023-04-28T12:02:26.460Z,2.00
2023-04-28T12:04:55.080Z,2.20
2023-04-28T12:07:23.767Z,3.70
2023-04-28T12:10:16.906Z,4.10
2023-04-28T12:15:20.497Z,3.00
2023-04-28T12:17:50.876Z,2.40
2023-04-28T12:20:37.370Z,3.10
2023-04-28T12:23:06.271Z,2.40
2023-04-28T12:25:45.783Z,2.30
2023-04-28T12:28:14.108Z,2.20
2023-04-28T12:30:43.600Z,2.20
2023-04-28T12:33:34.267Z,2.30
2023-04-28T12:36:02.428Z,2.20
2023-04-28T12:38:30.770Z,2.20
2023-04-28T12:40:59.335Z,2.30
2023-04-28T12:43:29.274Z,2.00
2023-04-28T12:45:57.535Z,2.20
2023-04-28T12:48:25.832Z,2.50
2023-04-28T12:50:54.133Z,2.40
2023-04-28T12:53:23.245Z,2.40
2023-04-28T12:55:51.406Z,2.40
2023-04-28T12:58:19.627Z,2.60
2023-04-28T13:00:47.843Z,3.00
2023-04-28T13:03:16.266Z,3.50
2023-04-28T13:05:44.536Z,2.60
2023-04-28T13:08:14.126Z,3.20
2023-04-28T13:10:42.800Z,2.70
2023-04-28T13:13:11.077Z,2.50
2023-04-28T13:15:39.583Z,3.00
2023-04-28T13:18:08.191Z,2.70
2023-04-28T13:20:36.573Z,2.40
2023-04-28T13:23:04.661Z,2.60
2023-04-28T13:25:32.814Z,2.50
2023-04-28T13:28:01.275Z,2.50
2023-04-28T13:30:29.443Z,2.90
2023-04-28T13:32:57.703Z,2.70
2023-04-28T13:35:26.368Z,3.30
2023-04-28T13:38:01.969Z,2.60
2023-04-28T13:40:30.806Z,3.30
2023-04-28T13:42:58.940Z,3.10
2023-04-28T13:45:27.284Z,3.20
2023-04-28T13:47:55.785Z,3.50
2023-04-28T13:50:23.897Z,4.20
2023-04-28T13:52:52.037Z,2.80
2023-04-28T13:55:27.566Z,2.60
2023-04-28T13:57:57.053Z,2.50
2023-04-28T14:00:25.409Z,2.70
2023-04-28T14:02:53.721Z,2.60
2023-04-28T14:05:22.445Z,2.80
2023-04-28T14:07:50.657Z,3.00
2023-04-28T14:10:18.888Z,2.80
2023-04-28T14:12:47.078Z,3.10
2023-04-28T14:15:16.381Z,2.70
2023-04-28T14:17:44.740Z,2.50
2023-04-28T14:20:13.391Z,2.30
2023-04-28T14:22:41.602Z,2.80
2023-04-28T14:25:10.080Z,2.90
2023-04-28T14:27:38.273Z,2.70
2023-04-28T14:30:07.357Z,2.10
2023-04-28T14:32:37.382Z,2.90
2023-04-28T14:35:07.783Z,2.90
2023-04-28T14:37:36.326Z,3.00
2023-04-28T14:40:05.843Z,2.40
2023-04-28T14:42:37.329Z,2.80
2023-04-28T14:45:07.843Z,2.50
2023-04-28T14:47:40.432Z,2.30
2023-04-28T14:50:10.384Z,2.40
2023-04-28T14:52:39.634Z,2.30
2023-04-28T14:55:08.239Z,2.60
2023-04-28T14:57:37.790Z,2.80
2023-04-28T15:00:08.253Z,2.60
2023-04-28T15:02:36.763Z,2.70
2023-04-28T15:05:06.151Z,2.80
2023-04-28T15:07:34.687Z,2.30
2023-04-28T15:10:02.834Z,2.50
2023-04-28T15:12:32.092Z,2.80
2023-04-28T15:15:00.465Z,2.80
2023-04-28T15:17:28.679Z,2.90
2023-04-28T15:19:57.565Z,2.40
2023-04-28T15:22:25.981Z,2.70
2023-04-28T15:24:55.454Z,2.80
2023-04-28T15:27:24.019Z,3.00
2023-04-28T15:29:52.197Z,2.80
2023-04-28T15:32:20.436Z,2.70
2023-04-28T15:34:49.351Z,3.00
2023-04-28T15:37:37.656Z,2.80
2023-04-28T15:40:06.731Z,2.50
2023-04-28T15:42:35.066Z,2.90
2023-04-28T15:45:03.671Z,2.70
2023-04-28T15:47:33.473Z,2.80
2023-04-28T15:50:01.809Z,2.70
2023-04-28T15:52:31.015Z,2.40
2023-04-28T15:55:00.927Z,2.90
2023-04-28T15:57:29.814Z,3.00
2023-04-28T15:59:58.449Z,3.20
2023-04-28T16:02:26.980Z,2.80
2023-04-28T16:04:55.358Z,2.70
2023-04-28T16:07:23.717Z,2.60
2023-04-28T16:09:53.724Z,3.00
2023-04-28T16:12:22.046Z,2.70
2023-04-28T16:14:51.058Z,2.70
2023-04-28T16:17:19.391Z,2.50
2023-04-28T16:19:47.546Z,2.60
2023-04-28T16:22:15.772Z,2.50
2023-04-28T16:24:45.305Z,2.60
2023-04-28T16:27:14.176Z,2.80
2023-04-28T16:29:42.518Z,3.00
2023-04-28T16:32:10.681Z,3.20
2023-04-28T16:34:38.964Z,2.90
2023-04-28T16:37:07.575Z,2.90
2023-04-28T16:39:35.757Z,2.70
2023-04-28T16:42:05.466Z,3.00
2023-04-28T16:44:35.902Z,3.20
2023-04-28T16:47:04.622Z,3.50
2023-04-28T16:49:32.752Z,3.40
2023-04-28T16:52:04.102Z,3.00
2023-04-28T16:54:33.115Z,2.90
2023-04-28T16:57:05.109Z,2.70
2023-04-28T16:59:34.180Z,3.00
2023-04-28T17:02:04.013Z,2.90
2023-04-28T17:04:32.920Z,2.90
2023-04-28T17:07:04.574Z,3.00
2023-04-28T17:09:35.870Z,2.90
2023-04-28T17:12:04.182Z,2.70
2023-04-28T17:14:32.379Z,2.70
2023-04-28T17:17:00.567Z,2.60
2023-04-28T17:19:28.949Z,2.80
2023-04-28T17:21:57.105Z,2.90
2023-04-28T17:24:25.348Z,3.20
2023-04-28T17:26:53.784Z,2.90
2023-04-28T17:29:22.322Z,2.90
2023-04-28T17:31:50.497Z,3.50
2023-04-28T17:34:20.200Z,3.20
2023-04-28T17:36:48.396Z,3.50
2023-04-28T17:39:16.891Z,3.60
2023-04-28T17:41:46.643Z,3.50
2023-04-28T17:44:14.807Z,3.70
2023-04-28T17:46:42.943Z,3.80
2023-04-28T17:49:11.182Z,4.20
2023-04-28T17:51:39.300Z,5.00
2023-04-28T17:54:09.672Z,6.10
2023-04-28T17:56:38.643Z,6.00
2023-04-28T17:59:08.342Z,4.90
2023-04-28T18:01:36.576Z,5.00
2023-04-28T18:04:04.909Z,5.20
2023-04-28T18:06:32.995Z,5.00
2023-04-28T18:09:01.487Z,4.90
2023-04-28T18:11:29.652Z,4.90
2023-04-28T18:13:58.907Z,5.70
2023-04-28T18:16:27.365Z,6.00
2023-04-28T18:18:55.607Z,6.10
2023-04-28T18:21:23.848Z,6.70
2023-04-28T18:23:52.107Z,6.80
2023-04-28T18:26:22.293Z,6.90
2023-04-28T18:28:50.577Z,7.30
2023-04-28T18:31:18.735Z,7.90
2023-04-28T18:33:46.978Z,7.00
2023-04-28T18:36:15.153Z,8.10
2023-04-28T18:38:43.259Z,7.70
2023-04-28T18:41:14.163Z,6.80
2023-04-28T18:43:42.964Z,6.40
2023-04-28T18:46:11.314Z,5.80
2023-04-28T18:48:40.307Z,5.60
2023-04-28T18:51:08.682Z,5.70
2023-04-28T18:53:37.230Z,5.80
2023-04-28T18:56:05.404Z,5.40
2023-04-28T18:58:33.644Z,5.80
2023-04-28T19:01:02.006Z,5.20
2023-04-28T19:03:31.592Z,4.80
2023-04-28T19:06:00.768Z,5.00
2023-04-28T19:08:29.369Z,5.30
2023-04-28T19:10:58.729Z,5.30
2023-04-28T19:13:27.023Z,6.00
2023-04-28T19:15:56.315Z,5.70
2023-04-28T19:18:24.504Z,5.50
2023-04-28T19:21:03.308Z,4.90
2023-04-28T19:23:35.702Z,5.00
2023-04-28T19:26:04.385Z,5.20
2023-04-28T19:28:32.657Z,4.60
2023-04-28T19:31:00.821Z,4.10
2023-04-28T19:33:29.192Z,4.20
2023-04-28T19:35:57.332Z,4.70
2023-04-28T19:38:25.713Z,4.40
2023-04-28T19:41:03.962Z,4.00
2023-04-28T19:43:32.639Z,3.70
2023-04-28T19:46:01.361Z,3.70
2023-04-28T19:48:29.749Z,4.40
2023-04-28T19:50:58.291Z,4.00
2023-04-28T19:53:26.676Z,3.80
2023-04-28T19:55:56.452Z,4.20
2023-04-28T19:58:24.848Z,4.40
2023-04-28T20:00:53.953Z,4.10
2023-04-28T20:03:23.065Z,4.00
2023-04-28T20:05:52.163Z,3.90
2023-04-28T20:08:20.575Z,4.10
2023-04-28T20:10:49.106Z,3.70
2023-04-28T20:13:17.179Z,4.00
2023-04-28T20:15:45.317Z,4.10
2023-04-28T20:18:13.470Z,4.20
2023-04-28T20:20:41.561Z,3.80
2023-04-28T20:23:09.760Z,4.30
2023-04-28T20:25:38.094Z,4.10
2023-04-28T20:28:06.637Z,4.40
2023-04-28T20:30:34.993Z,4.20
2023-04-28T20:33:03.844Z,4.00
2023-04-28T20:35:32.264Z,3.90
2023-04-28T20:38:00.396Z,3.70
2023-04-28T20:40:28.618Z,3.60
2023-04-28T20:42:58.952Z,3.40
2023-04-28T20:45:27.974Z,3.70
2023-04-28T20:47:56.615Z,3.80
2023-04-28T20:50:25.130Z,3.80
2023-04-28T20:52:53.366Z,3.40
2023-04-28T20:55:23.015Z,3.60
2023-04-28T20:57:51.137Z,3.90
2023-04-28T21:00:19.372Z,3.30
2023-04-28T21:02:47.550Z,3.80
2023-04-28T21:05:17.619Z,3.10
2023-04-28T21:07:45.956Z,3.70
2023-04-28T21:10:14.241Z,3.70
2023-04-28T21:12:42.335Z,3.70
2023-04-28T21:15:10.968Z,3.80
2023-04-28T21:17:39.399Z,3.40
2023-04-28T21:20:08.063Z,3.70
2023-04-28T21:22:36.555Z,3.50
2023-04-28T21:25:05.899Z,3.30
2023-04-28T21:27:34.131Z,3.50
2023-04-28T21:30:02.394Z,3.50
2023-04-28T21:32:30.976Z,3.80
2023-04-28T21:34:59.263Z,3.70
2023-04-28T21:37:27.395Z,3.80
2023-04-28T21:39:56.637Z,3.90
2023-04-28T21:42:25.047Z,4.00
2023-04-28T21:44:53.119Z,4.20
2023-04-28T21:47:21.302Z,3.70
2023-04-28T21:49:49.469Z,3.70
2023-04-28T21:52:17.692Z,4.00
2023-04-28T21:54:45.762Z,3.80
2023-04-28T21:57:15.879Z,4.00
2023-04-28T21:59:44.168Z,4.00
2023-04-28T22:02:12.881Z,4.10
2023-04-28T22:04:41.434Z,3.70
2023-04-28T22:07:09.941Z,3.70
2023-04-28T22:09:38.283Z,3.80
2023-04-28T22:12:06.401Z,3.60
2023-04-28T22:14:40.930Z,3.90
2023-04-28T22:17:09.942Z,3.60
2023-04-28T22:19:38.221Z,3.80
2023-04-28T22:22:07.803Z,3.80
2023-04-28T22:24:36.320Z,4.10
2023-04-28T22:27:04.641Z,3.80
2023-04-28T22:29:33.031Z,3.90
2023-04-28T22:32:02.741Z,3.70
2023-04-28T22:34:30.909Z,3.90
2023-04-28T22:36:59.138Z,4.20
2023-04-28T22:39:27.267Z,4.10
2023-04-28T22:41:55.891Z,3.60
2023-04-28T22:44:24.441Z,4.30
2023-04-28T22:46:53.469Z,3.70
2023-04-28T22:49:25.118Z,4.40
2023-04-28T22:51:53.325Z,4.00
2023-04-28T22:54:21.529Z,4.00
2023-04-28T22:56:51.347Z,4.00
2023-04-28T22:59:22.251Z,4.10
2023-04-28T23:01:50.714Z,3.80
2023-04-28T23:04:20.648Z,4.00
2023-04-28T23:06:49.432Z,4.10
2023-04-28T23:09:18.007Z,4.10
2023-04-28T23:11:46.264Z,4.10
2023-04-28T23:14:14.459Z,4.40
2023-04-28T23:16:42.646Z,4.40
2023-04-28T23:19:10.915Z,4.60
2023-04-28T23:21:39.094Z,4.30
2023-04-28T23:24:07.574Z,4.80
2023-04-28T23:26:35.809Z,4.00
2023-04-28T23:29:03.905Z,4.40
2023-04-28T23:31:32.330Z,4.00
2023-04-28T23:34:00.568Z,4.30
2023-04-28T23:36:28.893Z,4.70
2023-04-28T23:38:56.983Z,4.60
2023-04-28T23:41:26.217Z,4.30
2023-04-28T23:43:54.380Z,4.90
2023-04-28T23:46:22.812Z,4.90
2023-04-28T23:48:51.021Z,4.30
2023-04-28T23:51:19.292Z,4.40
2023-04-28T23:53:48.128Z,5.20
2023-04-28T23:56:16.676Z,4.80
2023-04-28T23:58:44.949Z,4.90
